Time;durP1;ratioP1;P1;durP2;ratioP2;P2;SDS_P1;SDS_P2;PMS_P1;PMS_P2;Temp;Humidity;BMP_temperature;BMP_pressure;BME280_temperature;BME280_humidity;BME280_pressure;Samples;Min_cycle;Max_cycle;Signal;HPM_P1;HPM_P2
2022/04/13 00:00:13;;;;;;;25.42;11.60;;;3.90;99.90;;;;;;4400011;28;658009;-67
2022/04/13 00:03:00;;;;;;;23.98;11.88;;;3.80;99.90;;;;;;4402414;28;658322;-66
2022/04/13 00:05:48;;;;;;;27.93;11.93;;;3.80;99.90;;;;;;4420344;28;658278;-66
2022/04/13 00:08:36;;;;;;;25.83;12.00;;;3.80;99.90;;;;;;4395606;28;657674;-67
2022/04/13 00:11:23;;;;;;;26.80;11.97;;;3.70;99.90;;;;;;4420459;28;658726;-66
2022/04/13 00:14:12;;;;;;;28.47;11.97;;;3.70;1.00;;;;;;4399243;28;657669;-66
2022/04/13 00:16:59;;;;;;;24.33;11.10;;;3.70;1.00;;;;;;4422502;28;656967;-67
2022/04/13 00:19:46;;;;;;;20.90;10.83;;;3.60;1.00;;;;;;4399747;28;656883;-67
2022/04/13 00:22:34;;;;;;;18.93;10.37;;;3.70;99.90;;;;;;4419694;28;657400;-67
2022/04/13 00:25:21;;;;;;;21.47;10.47;;;3.70;99.90;;;;;;4399139;28;658060;-66
2022/04/13 00:28:10;;;;;;;22.53;10.20;;;3.70;99.90;;;;;;4416186;28;658348;-66
2022/04/13 00:30:59;;;;;;;20.97;9.70;;;3.80;99.90;;;;;;4397594;28;658644;-66
2022/04/13 00:33:46;;;;;;;22.00;10.17;;;3.80;99.90;;;;;;4398104;28;656788;-66
2022/04/13 00:36:33;;;;;;;19.63;9.23;;;3.70;99.90;;;;;;4420920;28;658805;-66
2022/04/13 00:39:21;;;;;;;19.23;9.40;;;3.70;99.90;;;;;;4393369;28;657149;-66
2022/04/13 00:42:09;;;;;;;24.90;11.60;;;3.70;99.90;;;;;;4414072;28;657255;-66
2022/04/13 00:44:56;;;;;;;21.70;11.50;;;3.70;99.90;;;;;;4399707;28;657645;-66
2022/04/13 00:47:45;;;;;;;31.07;13.13;;;3.60;99.90;;;;;;4421339;28;657904;-67
2022/04/13 00:50:32;;;;;;;27.27;13.13;;;3.60;99.90;;;;;;4395641;28;657981;-66
2022/04/13 00:53:19;;;;;;;29.67;12.23;;;3.50;1.00;;;;;;4417069;28;658081;-66
2022/04/13 00:56:07;;;;;;;27.07;12.10;;;3.60;1.00;;;;;;4398124;28;657046;-66
2022/04/13 00:58:55;;;;;;;24.40;11.53;;;3.50;99.90;;;;;;4424516;28;656905;-66
2022/04/13 01:01:43;;;;;;;20.73;10.50;;;3.40;1.00;;;;;;4398178;28;658902;-66
2022/04/13 01:04:32;;;;;;;23.03;11.37;;;3.40;1.00;;;;;;4403767;28;656617;-66
2022/04/13 01:07:19;;;;;;;21.33;10.47;;;3.40;1.00;;;;;;4420918;28;656129;-67
2022/04/13 01:10:07;;;;;;;29.40;11.27;;;3.40;1.00;;;;;;4401358;28;656661;-67
2022/04/13 01:12:55;;;;;;;21.00;10.83;;;3.40;1.00;;;;;;4421441;28;655887;-66
2022/04/13 01:15:43;;;;;;;27.20;11.70;;;3.30;1.00;;;;;;4421619;28;657734;-67
2022/04/13 01:18:30;;;;;;;26.98;12.48;;;3.30;1.00;;;;;;4405879;28;657456;-66
2022/04/13 01:21:23;;;;;;;23.80;11.67;;;3.30;1.00;;;;;;4420900;28;657520;-67
2022/04/13 01:24:12;;;;;;;31.77;11.87;;;3.30;1.00;;;;;;4383783;28;657007;-66
2022/04/13 01:26:59;;;;;;;22.77;10.70;;;3.30;1.00;;;;;;4419273;28;656597;-67
2022/04/13 01:29:48;;;;;;;22.50;11.13;;;3.30;1.00;;;;;;4387282;28;657191;-67
2022/04/13 01:32:35;;;;;;;20.77;11.20;;;3.20;99.90;;;;;;4400679;28;656678;-66
2022/04/13 01:35:23;;;;;;;23.70;10.90;;;3.20;51.20;;;;;;4407526;28;659116;-66
2022/04/13 01:38:11;;;;;;;23.53;11.07;;;3.20;99.90;;;;;;4392098;28;657875;-66
2022/04/13 01:40:59;;;;;;;21.55;10.93;;;3.20;1.00;;;;;;4420164;28;657471;-67
2022/04/13 01:43:47;;;;;;;23.97;10.90;;;3.20;1.00;;;;;;4402896;28;656278;-66
2022/04/13 01:46:34;;;;;;;28.47;12.00;;;3.10;93.40;;;;;;4419054;28;656426;-67
2022/04/13 01:49:22;;;;;;;27.07;11.40;;;3.10;99.90;;;;;;4398486;28;657507;-66
2022/04/13 01:52:09;;;;;;;23.63;9.83;;;3.00;90.80;;;;;;4421573;28;658027;-66
2022/04/13 01:54:57;;;;;;;19.37;9.13;;;2.90;99.90;;;;;;4404664;28;656942;-66
2022/04/13 01:57:45;;;;;;;17.10;9.30;;;2.80;1.00;;;;;;4425933;28;656348;-66
2022/04/13 02:00:33;;;;;;;20.20;9.10;;;2.70;1.00;;;;;;4398679;28;656537;-67
2022/04/13 02:03:20;;;;;;;19.00;9.57;;;2.60;1.00;;;;;;4405141;28;655703;-66
2022/04/13 02:06:08;;;;;;;22.17;10.20;;;2.60;1.00;;;;;;4420644;28;656130;-66
2022/04/13 02:08:55;;;;;;;20.73;10.53;;;2.50;1.00;;;;;;4412172;28;656642;-66
2022/04/13 02:11:43;;;;;;;29.60;12.43;;;2.50;1.00;;;;;;4421578;28;657607;-66
2022/04/13 02:14:32;;;;;;;21.42;10.80;;;2.50;1.00;;;;;;4401693;28;656845;-66
2022/04/13 02:17:21;;;;;;;22.77;10.43;;;2.40;1.00;;;;;;4423511;28;656403;-66
2022/04/13 02:20:10;;;;;;;18.07;9.30;;;2.30;1.00;;;;;;4396961;28;657739;-66
2022/04/13 02:22:58;;;;;;;22.73;9.67;;;2.30;1.00;;;;;;4401431;28;656554;-67
2022/04/13 02:25:45;;;;;;;21.87;9.60;;;2.30;1.00;;;;;;4414686;28;655320;-66
2022/04/13 02:28:33;;;;;;;18.87;9.43;;;2.10;1.00;;;;;;4418054;28;656166;-66
2022/04/13 02:31:22;;;;;;;28.03;11.60;;;2.10;1.00;;;;;;4413509;28;655723;-66
2022/04/13 02:34:09;;;;;;;23.83;11.83;;;2.00;1.00;;;;;;4423642;28;656460;-67
2022/04/13 02:36:57;;;;;;;26.13;10.40;;;2.00;1.00;;;;;;4402088;28;656683;-66
2022/04/13 02:39:45;;;;;;;28.00;11.23;;;2.00;1.00;;;;;;4421718;28;656699;-66
2022/04/13 02:42:33;;;;;;;22.10;10.20;;;1.90;1.00;;;;;;4398120;28;656495;-66
2022/04/13 02:45:20;;;;;;;26.58;10.85;;;2.00;1.00;;;;;;4407555;28;656665;-67
2022/04/13 02:48:09;;;;;;;19.93;8.83;;;1.90;1.00;;;;;;4419053;28;657208;-66
2022/04/13 02:50:57;;;;;;;20.67;10.07;;;1.80;1.00;;;;;;4400247;28;656723;-66
2022/04/13 02:53:44;;;;;;;26.40;10.27;;;1.80;12.80;;;;;;4418884;28;657338;-67
2022/04/13 02:56:31;;;;;;;20.87;10.10;;;1.70;99.90;;;;;;4396608;28;658153;-66
2022/04/13 02:59:19;;;;;;;22.13;10.97;;;1.70;98.30;;;;;;4411322;28;657776;-67
2022/04/13 03:02:07;;;;;;;22.93;11.37;;;1.50;99.90;;;;;;4396580;28;657631;-67
2022/04/13 03:05:14;;;;;;;23.13;12.83;;;1.40;99.90;;;;;;4425397;28;657151;-67
2022/04/13 03:08:01;;;;;;;25.67;11.43;;;1.30;1.00;;;;;;4378986;28;658107;-67
2022/04/13 03:10:49;;;;;;;25.07;9.80;;;1.30;32.80;;;;;;4420380;28;657667;-66
2022/04/13 03:13:36;;;;;;;19.50;9.87;;;1.40;1.00;;;;;;4401141;28;656725;-66
2022/04/13 03:16:23;;;;;;;27.33;11.30;;;1.50;99.90;;;;;;4422117;28;655998;-66
2022/04/13 03:19:11;;;;;;;26.07;10.70;;;1.50;99.90;;;;;;4398578;28;657512;-66
2022/04/13 03:21:59;;;;;;;23.80;11.50;;;1.60;99.90;;;;;;4415241;28;658900;-66
2022/04/13 03:24:47;;;;;;;27.93;11.53;;;1.60;1.00;;;;;;4397715;28;658590;-66
2022/04/13 03:27:34;;;;;;;25.00;11.10;;;1.70;77.70;;;;;;4420363;28;656241;-67
2022/04/13 03:30:22;;;;;;;23.27;10.90;;;1.70;1.00;;;;;;4391384;28;657733;-66
2022/04/13 03:33:10;;;;;;;22.73;10.37;;;1.70;1.00;;;;;;4411217;28;656558;-67
2022/04/13 03:35:58;;;;;;;20.03;9.93;;;1.80;99.90;;;;;;4420006;28;657495;-67
2022/04/13 03:38:47;;;;;;;17.47;10.00;;;1.70;99.90;;;;;;4407494;28;657071;-67
2022/04/13 03:41:35;;;;;;;21.63;9.97;;;1.70;49.50;;;;;;4416833;28;657682;-67
2022/04/13 03:44:22;;;;;;;22.30;11.43;;;1.80;1.00;;;;;;4392492;28;657878;-66
2022/04/13 03:47:09;;;;;;;24.50;10.80;;;1.70;99.90;;;;;;4409601;28;656652;-67
2022/04/13 03:49:56;;;;;;;24.73;10.83;;;1.60;99.90;;;;;;4386629;28;658017;-66
2022/04/13 03:52:44;;;;;;;22.10;10.43;;;1.60;56.20;;;;;;4417395;28;657510;-66
2022/04/13 03:55:33;;;;;;;18.37;10.00;;;1.70;1.00;;;;;;4393064;28;657617;-66
2022/04/13 03:58:20;;;;;;;24.20;10.23;;;1.70;1.00;;;;;;4402268;28;656426;-67
2022/04/13 04:01:08;;;;;;;17.80;9.07;;;1.70;49.60;;;;;;4416400;28;657450;-67
2022/04/13 04:03:55;;;;;;;21.27;10.17;;;1.60;8.30;;;;;;4406454;28;656571;-66
2022/04/13 04:06:43;;;;;;;21.27;10.37;;;1.60;30.00;;;;;;4417589;28;657754;-67
2022/04/13 04:09:30;;;;;;;19.90;9.70;;;1.60;99.90;;;;;;4404172;28;657689;-67
2022/04/13 04:12:19;;;;;;;23.70;10.93;;;1.60;99.90;;;;;;4404173;28;657706;-66
2022/04/13 04:15:08;;;;;;;30.40;12.18;;;1.70;99.90;;;;;;4383278;28;657618;-66
2022/04/13 04:17:55;;;;;;;22.57;11.50;;;1.80;1.00;;;;;;4383901;28;658738;-67
2022/04/13 04:20:43;;;;;;;24.53;11.23;;;1.80;1.00;;;;;;4401925;28;657724;-67
2022/04/13 04:23:30;;;;;;;23.50;10.40;;;1.90;1.00;;;;;;4407260;28;656172;-66
2022/04/13 04:26:18;;;;;;;27.57;11.97;;;2.00;1.00;;;;;;4414408;28;657402;-66
2022/04/13 04:29:07;;;;;;;28.00;13.27;;;2.00;99.90;;;;;;4409663;28;656916;-67
2022/04/13 04:31:54;;;;;;;32.57;12.57;;;2.10;99.90;;;;;;4415054;28;657533;-66
2022/04/13 04:34:42;;;;;;;26.83;11.90;;;2.20;4.00;;;;;;4389121;28;658237;-67
2022/04/13 04:37:29;;;;;;;28.70;10.97;;;2.30;1.00;;;;;;4424084;28;656303;-66
2022/04/13 04:40:17;;;;;;;23.50;10.80;;;2.50;1.00;;;;;;4403090;28;658970;-66
2022/04/13 04:43:04;;;;;;;28.53;11.33;;;2.70;1.00;;;;;;4416237;28;656260;-67
2022/04/13 04:45:53;;;;;;;18.52;9.77;;;2.80;99.90;;;;;;4401203;28;656484;-66
2022/04/13 04:48:42;;;;;;;24.93;10.87;;;3.00;1.00;;;;;;4407761;28;656526;-67
2022/04/13 04:51:30;;;;;;;23.80;9.37;;;3.20;99.90;;;;;;4421094;28;656622;-67
2022/04/13 04:54:18;;;;;;;20.83;9.20;;;3.40;99.90;;;;;;4390143;28;657889;-67
2022/04/13 04:57:05;;;;;;;18.97;8.20;;;3.60;99.90;;;;;;4413021;28;657862;-67
2022/04/13 04:59:53;;;;;;;17.40;7.70;;;3.70;1.00;;;;;;4417764;28;657816;-67
2022/04/13 05:02:42;;;;;;;17.30;7.73;;;3.90;1.00;;;;;;4411931;28;655699;-67
2022/04/13 05:05:29;;;;;;;16.40;8.10;;;4.00;1.00;;;;;;4421825;28;655048;-67
2022/04/13 05:08:16;;;;;;;16.97;7.40;;;4.10;1.00;;;;;;4396142;28;655343;-67
2022/04/13 05:11:04;;;;;;;15.70;7.83;;;4.30;99.90;;;;;;4422645;28;656539;-67
2022/04/13 05:13:51;;;;;;;16.77;8.00;;;4.50;99.90;;;;;;4401986;28;656846;-67
2022/04/13 05:16:38;;;;;;;15.43;7.35;;;4.60;99.90;;;;;;4413833;28;657472;-67
2022/04/13 05:19:46;;;;;;;13.17;6.93;;;4.70;1.00;;;;;;4394191;28;656476;-67
2022/04/13 05:22:33;;;;;;;15.57;7.50;;;4.90;1.00;;;;;;4398476;28;657096;-66
2022/04/13 05:25:20;;;;;;;16.57;7.70;;;5.00;1.00;;;;;;4398327;28;655813;-67
2022/04/13 05:28:08;;;;;;;21.50;8.13;;;5.10;1.00;;;;;;4418561;28;657178;-66
2022/04/13 05:30:55;;;;;;;15.73;8.17;;;5.30;1.00;;;;;;4404622;28;656514;-66
2022/04/13 05:33:43;;;;;;;20.13;8.23;;;5.50;1.00;;;;;;4424965;28;656569;-66
2022/04/13 05:39:38;;;;;;;15.90;8.37;;;5.90;99.90;;;;;;4388311;28;655983;-67
2022/04/13 05:42:25;;;;;;;15.73;7.67;;;6.10;99.90;;;;;;4395169;28;656837;-67
2022/04/13 05:48:48;;;;;;;15.27;7.30;;;6.30;99.90;;;;;;4381302;28;656962;-67
2022/04/13 05:51:38;;;;;;;14.83;7.20;;;6.40;99.90;;;;;;4382745;28;658009;-67
2022/04/13 05:54:41;;;;;;;16.67;8.10;;;6.60;99.90;;;;;;4380945;28;661775;-67
2022/04/13 05:57:28;;;;;;;17.20;7.60;;;6.70;99.90;;;;;;4382752;28;657180;-67
2022/04/13 06:00:17;;;;;;;15.77;7.77;;;6.70;99.90;;;;;;4384581;28;656679;-67
2022/04/13 06:03:04;;;;;;;15.60;7.55;;;6.80;99.90;;;;;;4403085;28;656481;-67
2022/04/13 06:05:52;;;;;;;16.20;7.63;;;6.90;99.90;;;;;;4384941;28;657838;-67
2022/04/13 06:08:40;;;;;;;17.37;7.90;;;7.00;99.90;;;;;;4405873;28;656661;-67
2022/04/13 06:11:28;;;;;;;15.80;7.83;;;7.10;99.90;;;;;;4380575;28;657391;-66
2022/04/13 06:14:15;;;;;;;20.23;7.60;;;7.10;99.90;;;;;;4390795;28;656542;-66
2022/04/13 06:17:03;;;;;;;19.10;7.53;;;7.20;99.90;;;;;;4410818;28;656785;-67
2022/04/13 06:19:50;;;;;;;16.97;7.70;;;7.30;88.10;;;;;;4392747;28;656566;-67
2022/04/13 06:22:39;;;;;;;18.67;7.70;;;7.40;50.30;;;;;;4402207;28;658015;-66
2022/04/13 06:25:27;;;;;;;13.63;7.03;;;7.40;92.40;;;;;;4380785;28;656824;-66
2022/04/13 06:28:15;;;;;;;11.27;6.83;;;7.50;20.00;;;;;;4408737;28;656438;-67
2022/04/13 06:31:02;;;;;;;12.87;7.03;;;7.70;4.40;;;;;;4386913;28;657680;-66
2022/04/13 06:33:49;;;;;;;12.45;6.90;;;7.70;6.50;;;;;;4411352;28;655125;-67
2022/04/13 06:36:37;;;;;;;14.67;7.20;;;7.80;1.00;;;;;;4386539;28;656023;-67
2022/04/13 06:39:24;;;;;;;13.27;6.80;;;7.90;1.00;;;;;;4403525;28;655984;-67
2022/04/13 06:42:13;;;;;;;12.87;6.43;;;8.00;1.00;;;;;;4382678;28;655718;-67
2022/04/13 06:45:01;;;;;;;15.43;6.00;;;8.10;1.00;;;;;;4346410;28;1209894;-66
2022/04/13 06:47:48;;;;;;;14.70;6.87;;;8.20;1.00;;;;;;4410856;28;658261;-67
2022/04/13 06:50:36;;;;;;;18.03;7.63;;;8.20;1.00;;;;;;4386403;28;655450;-67
2022/04/13 06:53:23;;;;;;;18.87;7.53;;;8.40;1.00;;;;;;4404546;28;657557;-67
2022/04/13 06:56:10;;;;;;;13.82;6.93;;;8.50;1.00;;;;;;4392228;28;655415;-67
2022/04/13 06:58:59;;;;;;;11.30;6.47;;;8.60;1.00;;;;;;4402333;28;656579;-67
2022/04/13 07:01:47;;;;;;;9.93;5.97;;;8.70;1.00;;;;;;4387059;28;655776;-67
2022/04/13 07:04:34;;;;;;;15.97;6.43;;;8.80;1.00;;;;;;4402204;28;655361;-67
2022/04/13 07:07:22;;;;;;;11.23;6.10;;;9.00;1.00;;;;;;4391415;28;656072;-67
2022/04/13 07:10:09;;;;;;;9.30;5.93;;;9.10;1.00;;;;;;4406898;28;655047;-67
2022/04/13 07:12:57;;;;;;;11.03;5.70;;;9.20;1.00;;;;;;4391293;28;654409;-67
2022/04/13 07:15:45;;;;;;;10.30;5.83;;;9.30;1.00;;;;;;4404610;28;655634;-67
2022/04/13 07:18:34;;;;;;;10.93;5.77;;;9.40;1.00;;;;;;4379510;28;656248;-67
2022/04/13 07:21:21;;;;;;;11.60;5.47;;;9.40;1.00;;;;;;4393380;28;655274;-66
2022/04/13 07:24:10;;;;;;;11.37;5.17;;;9.50;1.00;;;;;;4406161;28;655803;-67
2022/04/13 07:26:58;;;;;;;10.17;5.23;;;9.60;1.00;;;;;;4387929;28;656395;-67
2022/04/13 07:29:45;;;;;;;11.20;5.70;;;9.70;1.00;;;;;;4401604;28;655547;-67
2022/04/13 07:32:34;;;;;;;11.43;5.20;;;9.70;1.00;;;;;;4405613;28;655328;-67
2022/04/13 07:35:21;;;;;;;11.43;5.53;;;10.00;1.00;;;;;;4394016;28;655850;-67
2022/04/13 07:38:09;;;;;;;10.87;5.73;;;10.10;1.00;;;;;;4409195;28;657680;-67
2022/04/13 07:40:58;;;;;;;12.73;5.40;;;10.30;1.00;;;;;;4385781;28;656364;-67
2022/04/13 07:43:45;;;;;;;8.97;5.10;;;10.40;1.00;;;;;;4386827;28;657299;-67
2022/04/13 07:46:33;;;;;;;10.50;5.13;;;10.70;1.00;;;;;;4410627;28;656303;-67
2022/04/13 07:49:22;;;;;;;9.33;4.87;;;10.80;1.00;;;;;;4387643;28;656315;-67
2022/04/13 07:52:09;;;;;;;12.67;5.80;;;10.90;1.00;;;;;;4406639;28;655504;-67
2022/04/13 07:54:56;;;;;;;9.13;4.90;;;10.90;1.00;;;;;;4384771;28;657102;-67
2022/04/13 07:57:44;;;;;;;10.53;5.27;;;11.10;1.00;;;;;;4405572;28;656587;-67
2022/04/13 08:00:31;;;;;;;9.00;5.37;;;11.10;1.00;;;;;;4379851;28;657724;-67
2022/04/13 08:03:18;;;;;;;10.50;5.00;;;11.20;1.00;;;;;;4410045;28;656184;-67
2022/04/13 08:06:07;;;;;;;8.50;4.53;;;11.80;1.00;;;;;;4379977;28;657618;-67
2022/04/13 08:08:54;;;;;;;11.47;4.97;;;11.50;1.00;;;;;;4403304;28;655592;-67
2022/04/13 08:11:42;;;;;;;8.70;5.00;;;11.70;1.00;;;;;;4390587;28;658662;-67
2022/04/13 08:14:29;;;;;;;12.50;5.07;;;11.80;1.00;;;;;;4412097;28;656183;-67
2022/04/13 08:17:16;;;;;;;9.37;4.73;;;11.90;1.00;;;;;;4393221;28;656424;-67
2022/04/13 08:20:04;;;;;;;10.87;4.80;;;12.20;1.00;;;;;;4408323;28;656624;-67
2022/04/13 08:22:53;;;;;;;12.53;5.40;;;12.10;1.00;;;;;;4393600;28;656416;-67
2022/04/13 08:25:40;;;;;;;10.53;5.10;;;12.20;1.00;;;;;;4386434;28;656761;-67
2022/04/13 08:28:28;;;;;;;8.90;5.17;;;12.30;1.00;;;;;;4410268;28;657520;-67
2022/04/13 08:31:16;;;;;;;14.50;5.10;;;12.60;1.00;;;;;;4392283;28;656166;-67
2022/04/13 08:34:03;;;;;;;9.63;5.03;;;12.90;1.00;;;;;;4413178;28;657566;-68
2022/04/13 08:36:51;;;;;;;11.07;5.40;;;12.90;1.00;;;;;;4392030;28;655701;-68
2022/04/13 08:39:39;;;;;;;12.43;5.87;;;13.20;1.00;;;;;;4412342;28;656642;-67
2022/04/13 08:42:31;;;;;;;9.83;5.03;;;13.30;1.00;;;;;;4388662;28;657437;-68
2022/04/13 08:45:23;;;;;;;13.73;5.80;;;13.70;1.00;;;;;;4383386;28;655888;-68
2022/04/13 08:48:12;;;;;;;13.40;5.80;;;13.60;1.00;;;;;;4358327;28;656830;-68
2022/04/13 08:51:00;;;;;;;13.33;5.57;;;13.70;1.00;;;;;;4413230;28;656717;-67
2022/04/13 08:53:49;;;;;;;11.20;6.07;;;13.90;1.00;;;;;;4389509;28;657097;-68
2022/04/13 08:56:38;;;;;;;13.03;5.90;;;14.30;1.00;;;;;;4394075;28;656607;-68
2022/04/13 08:59:34;;;;;;;10.77;6.20;;;14.60;1.00;;;;;;4397450;28;656694;-68
2022/04/13 09:02:26;;;;;;;11.70;5.60;;;15.10;1.00;;;;;;4359331;28;657557;-68
2022/04/13 09:05:14;;;;;;;13.73;5.17;;;15.00;1.00;;;;;;4384367;28;657984;-68
2022/04/13 09:08:07;;;;;;;10.80;4.90;;;15.00;1.00;;;;;;4391252;28;656806;-68
2022/04/13 09:10:54;;;;;;;11.90;5.63;;;14.90;1.00;;;;;;4385178;28;656903;-68
2022/04/13 09:13:44;;;;;;;16.03;6.13;;;14.90;1.00;;;;;;4391658;28;656469;-68
2022/04/13 09:16:31;;;;;;;12.40;5.90;;;15.30;1.00;;;;;;4390827;28;656686;-68
2022/04/13 09:19:18;;;;;;;11.03;5.60;;;15.40;1.00;;;;;;4409514;28;657356;-68
2022/04/13 09:22:06;;;;;;;9.87;5.27;;;15.30;1.00;;;;;;4396056;28;656339;-68
2022/04/13 09:24:54;;;;;;;12.27;5.27;;;15.70;1.00;;;;;;4411439;28;655844;-68
2022/04/13 09:27:41;;;;;;;16.73;5.73;;;15.20;1.00;;;;;;4395330;28;656315;-68
2022/04/13 09:30:30;;;;;;;10.93;5.20;;;15.00;1.00;;;;;;4406817;28;657139;-68
2022/04/13 09:33:17;;;;;;;11.53;5.27;;;15.80;1.00;;;;;;4390307;28;657473;-68
2022/04/13 09:36:05;;;;;;;11.47;5.53;;;15.20;1.00;;;;;;4418609;28;656324;-68
2022/04/13 09:38:54;;;;;;;10.60;5.73;;;15.30;1.00;;;;;;4392496;28;657735;-68
2022/04/13 09:41:42;;;;;;;13.47;5.10;;;15.30;1.00;;;;;;4394491;28;656770;-68
2022/04/13 09:44:30;;;;;;;11.23;5.33;;;15.00;1.00;;;;;;4409714;28;656686;-68
2022/04/13 09:47:19;;;;;;;10.70;5.67;;;15.30;1.00;;;;;;4376284;28;656842;-68
2022/04/13 09:50:07;;;;;;;9.27;5.00;;;15.70;1.00;;;;;;4376762;28;656882;-68
2022/04/13 09:52:57;;;;;;;12.20;5.70;;;15.60;1.00;;;;;;4397416;28;655286;-68
2022/04/13 09:55:45;;;;;;;12.23;5.80;;;15.60;1.00;;;;;;4378853;28;656998;-68
2022/04/13 09:58:33;;;;;;;14.97;5.70;;;15.40;1.00;;;;;;4378420;28;657612;-68
2022/04/13 10:01:20;;;;;;;12.20;6.00;;;16.40;1.00;;;;;;4390784;28;657268;-68
2022/04/13 10:04:09;;;;;;;11.83;5.27;;;16.00;1.00;;;;;;4400996;28;657377;-68
2022/04/13 10:06:57;;;;;;;12.53;5.40;;;16.30;1.00;;;;;;4375145;28;656189;-68
2022/04/13 10:09:44;;;;;;;12.20;5.67;;;15.90;1.00;;;;;;4400940;28;657378;-68
2022/04/13 10:12:47;;;;;;;13.87;5.83;;;16.60;1.00;;;;;;4379857;28;656565;-68
2022/04/13 10:15:34;;;;;;;13.00;6.00;;;16.20;1.00;;;;;;4381174;28;656600;-68
2022/04/13 10:18:21;;;;;;;13.30;5.53;;;16.10;1.00;;;;;;4378873;28;657802;-68
2022/04/13 10:21:10;;;;;;;14.23;5.50;;;17.40;1.00;;;;;;4397389;28;656833;-69
2022/04/13 10:23:57;;;;;;;9.82;5.47;;;17.60;1.00;;;;;;4373857;28;657096;-68
2022/04/13 10:26:47;;;;;;;16.23;6.30;;;17.30;1.00;;;;;;4393821;28;655574;-68
2022/04/13 10:29:35;;;;;;;13.97;6.27;;;16.30;1.00;;;;;;4397588;28;656673;-68
2022/04/13 10:32:24;;;;;;;9.77;5.40;;;16.30;1.00;;;;;;4374870;28;657191;-68
2022/04/13 10:35:12;;;;;;;13.03;5.50;;;17.30;1.00;;;;;;4371931;28;656295;-68
2022/04/13 10:38:00;;;;;;;12.50;6.07;;;17.50;1.00;;;;;;4388523;28;657800;-68
2022/04/13 10:40:48;;;;;;;10.20;5.50;;;17.40;1.00;;;;;;4364646;28;657154;-68
2022/04/13 10:43:35;;;;;;;11.82;5.38;;;18.20;1.00;;;;;;4386573;28;657248;-68
2022/04/13 10:46:23;;;;;;;11.63;6.47;;;16.90;1.00;;;;;;4405012;28;657224;-68
2022/04/13 10:49:10;;;;;;;12.23;5.77;;;17.00;1.00;;;;;;4400988;28;656348;-68
2022/04/13 10:52:04;;;;;;;12.60;5.87;;;17.80;1.00;;;;;;4418006;28;656913;-68
2022/04/13 10:54:55;;;;;;;11.63;5.73;;;17.20;6.40;;;;;;4366927;28;657250;-68
2022/04/13 10:57:46;;;;;;;11.47;5.30;;;17.50;99.90;;;;;;4397263;28;657434;-68
2022/04/13 11:00:33;;;;;;;12.60;5.97;;;17.70;77.80;;;;;;4393857;28;659025;-68
2022/04/13 11:03:21;;;;;;;9.43;5.57;;;18.60;3.20;;;;;;4396767;28;657909;-68
2022/04/13 11:06:09;;;;;;;9.17;4.90;;;19.30;1.00;;;;;;4418629;28;655764;-68
2022/04/13 11:08:58;;;;;;;13.73;5.77;;;18.60;4.20;;;;;;4397555;28;655552;-68
2022/04/13 11:11:47;;;;;;;11.23;5.57;;;17.80;8.00;;;;;;4392333;28;656809;-68
2022/04/13 11:14:41;;;;;;;9.67;5.50;;;17.70;1.00;;;;;;4416313;28;657324;-68
2022/04/13 11:17:28;;;;;;;9.07;5.20;;;18.70;1.00;;;;;;4383307;28;656478;-68
2022/04/13 11:20:17;;;;;;;12.37;5.23;;;19.70;1.00;;;;;;4382924;28;655494;-68
2022/04/13 11:23:10;;;;;;;11.80;5.60;;;20.10;1.00;;;;;;4401958;28;657568;-68
2022/04/13 11:26:01;;;;;;;10.77;5.40;;;19.90;1.00;;;;;;4379418;28;658994;-68
2022/04/13 11:28:59;;;;;;;10.53;5.23;;;19.60;1.00;;;;;;4383090;28;656999;-68
2022/04/13 11:32:11;;;;;;;8.87;5.20;;;19.10;31.60;;;;;;4384343;28;656191;-68
2022/04/13 11:34:59;;;;;;;10.30;5.97;;;19.00;1.00;;;;;;4382304;28;656593;-68
2022/04/13 11:37:47;;;;;;;10.27;5.33;;;20.10;91.60;;;;;;4390861;28;656973;-68
2022/04/13 11:40:34;;;;;;;15.07;5.87;;;20.30;99.90;;;;;;4409188;28;658326;-68
2022/04/13 11:43:21;;;;;;;12.20;5.00;;;21.40;64.90;;;;;;4382010;28;657501;-68
2022/04/13 11:46:25;;;;;;;10.73;4.87;;;21.00;3.60;;;;;;4398532;28;658504;-68
2022/04/13 11:49:12;;;;;;;11.33;5.33;;;19.60;11.50;;;;;;4360962;28;656885;-68
2022/04/13 11:52:00;;;;;;;9.43;4.80;;;19.20;29.70;;;;;;4405304;28;658568;-68
2022/04/13 11:54:47;;;;;;;10.23;4.90;;;20.30;1.00;;;;;;4380654;28;657677;-68
2022/04/13 11:58:19;;;;;;;9.17;5.30;;;20.00;99.90;;;;;;4417086;28;657478;-69
2022/04/13 12:01:12;;;;;;;12.80;5.37;;;19.40;99.90;;;;;;4387516;28;657203;-68
2022/04/13 12:03:59;;;;;;;11.87;5.07;;;18.80;99.90;;;;;;4382574;28;657866;-68
2022/04/13 12:06:46;;;;;;;9.60;4.97;;;19.30;99.90;;;;;;4379741;28;657470;-68
2022/04/13 12:09:34;;;;;;;10.83;5.10;;;19.50;99.90;;;;;;4404664;28;656782;-68
2022/04/13 12:15:55;;;;;;;8.57;4.80;;;20.30;99.90;;;;;;4381796;28;657247;-68
2022/04/13 12:18:44;;;;;;;7.87;4.73;;;21.20;62.80;;;;;;4383191;28;657656;-68
2022/04/13 12:21:32;;;;;;;12.03;4.60;;;21.60;99.90;;;;;;4395397;28;656914;-68
2022/04/13 12:24:20;;;;;;;10.80;5.00;;;20.60;10.90;;;;;;4397397;28;658191;-68
2022/04/13 12:27:11;;;;;;;10.57;5.00;;;21.50;33.20;;;;;;4382519;28;658412;-68
2022/04/13 12:30:12;;;;;;;8.30;4.53;;;22.20;1.00;;;;;;4378633;28;658220;-68
2022/04/13 12:32:59;;;;;;;8.53;5.00;;;22.30;99.90;;;;;;4385069;28;659672;-68
2022/04/13 12:35:49;;;;;;;7.00;4.40;;;22.10;99.90;;;;;;4386351;28;656505;-68
2022/04/13 12:38:37;;;;;;;8.53;4.77;;;20.10;99.90;;;;;;4380167;28;657276;-68
2022/04/13 12:41:25;;;;;;;9.13;4.73;;;20.30;99.90;;;;;;4404997;28;657048;-67
2022/04/13 12:44:15;;;;;;;10.60;4.67;;;20.10;99.90;;;;;;4384673;28;657555;-68
2022/04/13 12:47:21;;;;;;;9.67;4.60;;;20.60;99.90;;;;;;4379790;28;658243;-68
2022/04/13 12:50:09;;;;;;;11.87;4.83;;;20.90;80.30;;;;;;4381365;28;658133;-68
2022/04/13 12:53:00;;;;;;;11.47;5.20;;;20.40;99.90;;;;;;4379634;28;658051;-68
2022/04/13 12:55:52;;;;;;;9.75;5.00;;;18.90;99.90;;;;;;4393083;28;657976;-68
2022/04/13 12:58:40;;;;;;;13.40;6.23;;;18.80;99.90;;;;;;4403301;28;656732;-68
2022/04/13 13:01:31;;;;;;;8.10;4.70;;;19.70;99.90;;;;;;4393487;28;658539;-68
2022/04/13 13:04:20;;;;;;;6.33;4.13;;;19.80;99.90;;;;;;4399232;28;656587;-68
2022/04/13 13:07:08;;;;;;;6.77;4.57;;;21.20;99.90;;;;;;4381834;28;656994;-68
2022/04/13 13:09:57;;;;;;;10.60;5.10;;;20.40;99.90;;;;;;4388976;28;656888;-68
2022/04/13 13:12:44;;;;;;;10.10;4.97;;;20.30;99.90;;;;;;4428836;28;657241;-68
2022/04/13 13:15:36;;;;;;;8.47;4.60;;;20.40;99.90;;;;;;4389493;28;657640;-68
2022/04/13 13:18:23;;;;;;;11.43;5.10;;;19.60;99.90;;;;;;4391682;28;657820;-68
2022/04/13 13:21:11;;;;;;;9.40;4.83;;;19.50;87.90;;;;;;4388475;28;657834;-69
2022/04/13 13:23:58;;;;;;;9.37;4.70;;;20.10;94.70;;;;;;4412354;28;657134;-68
2022/04/13 13:26:49;;;;;;;8.40;4.80;;;19.20;17.20;;;;;;4395996;28;656893;-68
2022/04/13 13:29:43;;;;;;;10.17;5.00;;;18.90;99.90;;;;;;4393568;28;656418;-68
2022/04/13 13:32:35;;;;;;;8.10;5.00;;;18.80;99.80;;;;;;4376737;28;657674;-68
2022/04/13 13:35:23;;;;;;;12.20;4.70;;;18.70;92.60;;;;;;4391007;28;657702;-68
2022/04/13 13:38:11;;;;;;;8.77;5.10;;;18.30;99.90;;;;;;4404829;28;657472;-68
2022/04/13 13:40:58;;;;;;;11.43;4.93;;;18.00;99.90;;;;;;4414482;28;656953;-68
2022/04/13 13:43:52;;;;;;;9.97;4.83;;;18.20;76.90;;;;;;4409929;28;657948;-68
2022/04/13 13:46:52;;;;;;;12.23;5.07;;;19.60;99.90;;;;;;4396700;28;656498;-68
2022/04/13 13:49:43;;;;;;;11.53;5.20;;;18.80;99.90;;;;;;4401168;28;657915;-68
2022/04/13 13:52:30;;;;;;;11.37;6.90;;;18.80;99.90;;;;;;4380545;28;657573;-68
2022/04/13 13:55:24;;;;;;;9.17;4.63;;;18.90;99.90;;;;;;4404675;28;658280;-68
2022/04/13 13:58:12;;;;;;;8.17;5.27;;;18.60;99.90;;;;;;4361877;28;656872;-68
2022/04/13 14:01:01;;;;;;;8.70;5.20;;;18.20;99.90;;;;;;4405603;28;656225;-68
2022/04/13 14:03:48;;;;;;;12.30;4.70;;;17.60;99.90;;;;;;4379810;28;657005;-68
2022/04/13 14:06:36;;;;;;;9.60;4.57;;;17.90;94.20;;;;;;4387019;28;657509;-68
2022/04/13 14:09:23;;;;;;;16.13;5.20;;;18.30;87.60;;;;;;4428702;28;657651;-68
2022/04/13 14:12:10;;;;;;;12.67;5.00;;;18.20;99.90;;;;;;4377561;28;657434;-68
2022/04/13 14:14:58;;;;;;;11.53;4.63;;;18.20;99.90;;;;;;4406791;28;658299;-68
2022/04/13 14:17:48;;;;;;;9.63;4.80;;;18.10;99.90;;;;;;4387377;28;658038;-68
2022/04/13 14:20:35;;;;;;;8.30;5.18;;;18.00;99.90;;;;;;4384417;28;656681;-68
2022/04/13 14:23:23;;;;;;;9.50;4.90;;;18.40;99.90;;;;;;4413934;28;657516;-68
2022/04/13 14:26:10;;;;;;;14.88;5.22;;;18.90;32.70;;;;;;4397637;28;656333;-67
2022/04/13 14:28:58;;;;;;;11.03;4.67;;;18.70;63.20;;;;;;4421995;28;658370;-68
2022/04/13 14:31:45;;;;;;;8.37;4.70;;;18.80;99.90;;;;;;4400228;28;657987;-68
2022/04/13 14:34:37;;;;;;;11.53;5.00;;;18.70;99.90;;;;;;4422692;28;656998;-68